createdAt,value
2022-11-09T09:13:22.801Z,100289.59
2022-11-09T09:15:25.532Z,100289.59
2022-11-09T09:17:28.260Z,100452.34
2022-11-09T09:25:49.739Z,100112.63
2022-11-09T09:27:52.778Z,100112.63
2022-11-09T09:29:55.626Z,100443.72
2022-11-09T09:31:57.873Z,100441.41
2022-11-09T09:34:00.463Z,100457.87
2022-11-09T09:36:03.273Z,100466.97
2022-11-09T09:38:05.922Z,100483.75
2022-11-09T09:40:19.465Z,100479.31
2022-11-09T09:42:29.947Z,100482.19
2022-11-09T09:44:47.345Z,100481.31
2022-11-09T09:46:58.841Z,100482.13
2022-11-09T09:49:19.027Z,100481.34
2022-11-09T09:51:30.049Z,100480.63
2022-11-09T09:53:37.810Z,100484.87
2022-11-09T09:55:45.770Z,100482.41
2022-11-09T09:57:54.291Z,100477.97
2022-11-09T10:00:01.243Z,100471.75
2022-11-09T10:02:03.845Z,100471.66
2022-11-09T10:04:21.612Z,100476.16
2022-11-09T10:06:42.705Z,100478.13
2022-11-09T10:08:57.037Z,100474.53
2022-11-09T10:11:16.809Z,100472.03
2022-11-09T10:13:18.981Z,100469.62
2022-11-09T10:15:31.490Z,100463.03
2022-11-09T10:17:40.794Z,100461.19
2022-11-09T10:19:45.820Z,100469.41
2022-11-09T10:21:47.951Z,100474.94
2022-11-09T10:24:28.963Z,100478.91
2022-11-09T10:26:49.607Z,100470.25
2022-11-09T10:29:16.734Z,100472.78
2022-11-09T10:31:22.803Z,100476.63
2022-11-09T10:33:28.545Z,100473.16
2022-11-09T10:35:47.536Z,100479.31
2022-11-09T10:37:52.398Z,100471.22
2022-11-09T10:40:11.592Z,100481.69
2022-11-09T10:42:32.122Z,100468.09
2022-11-09T10:44:53.112Z,100470.38
2022-11-09T10:47:19.139Z,100463.41
2022-11-09T10:49:40.834Z,100464.09
2022-11-09T10:52:02.503Z,100464.19
2022-11-09T10:54:27.289Z,100461.38
2022-11-09T10:57:06.957Z,100457.72
2022-11-09T10:59:47.226Z,100457.47
2022-11-09T11:02:26.548Z,100457.59
2022-11-09T11:04:47.410Z,100454.72
2022-11-09T11:07:21.265Z,100452.41
2022-11-09T11:09:42.271Z,100449.66
2022-11-09T11:12:15.236Z,100451.72
2022-11-09T11:14:43.344Z,100454.16
2022-11-09T11:17:04.120Z,100455.62
2022-11-09T11:19:37.162Z,100446.13
2022-11-09T11:22:12.714Z,100450.13
2022-11-09T11:24:42.267Z,100448.41
2022-11-09T11:27:10.885Z,100444.84
2022-11-09T11:29:39.026Z,100442.75
2022-11-09T11:31:59.764Z,100449.50
2022-11-09T11:34:45.779Z,100450.19
2022-11-09T11:37:25.167Z,100448.75
2022-11-09T11:40:03.458Z,100455.97
2022-11-09T11:42:59.505Z,100443.97
2022-11-09T11:45:40.736Z,100448.94
2022-11-09T11:48:27.902Z,100451.34
2022-11-09T11:51:12.959Z,100444.97
2022-11-09T11:54:04.666Z,100442.09
2022-11-09T11:56:36.164Z,100442.56
2022-11-09T11:59:21.412Z,100446.03
2022-11-09T12:01:56.225Z,100442.19
2022-11-09T12:04:31.856Z,100441.97
2022-11-09T12:07:04.684Z,100445.50
2022-11-09T12:09:31.974Z,100435.44
2022-11-09T12:12:15.454Z,100445.72
2022-11-09T12:15:07.452Z,100434.66
2022-11-09T12:17:56.801Z,100433.44
2022-11-09T12:20:37.487Z,100434.13
2022-11-09T12:23:07.328Z,100426.03
2022-11-09T12:25:46.728Z,100436.75
2022-11-09T12:28:28.751Z,100432.44
2022-11-09T12:31:16.830Z,100432.38
2022-11-09T12:33:58.666Z,100431.09
2022-11-09T12:36:26.121Z,100429.59
2022-11-09T12:39:22.574Z,100422.84
2022-11-09T12:41:44.535Z,100424.16
2022-11-09T12:44:26.663Z,100429.53
2022-11-09T12:46:56.101Z,100433.84
2022-11-09T12:49:36.876Z,100424.63
2022-11-09T12:51:59.168Z,100431.28
2022-11-09T12:54:20.998Z,100431.28
2022-11-09T12:57:06.733Z,100426.28
2022-11-09T12:59:27.574Z,100431.75
2022-11-09T13:01:56.256Z,100422.56
2022-11-09T13:04:19.448Z,100421.41
2022-11-09T13:06:42.354Z,100423.00
2022-11-09T13:09:18.605Z,100426.47
2022-11-09T13:11:42.226Z,100418.84
2022-11-09T13:14:21.565Z,100426.00
2022-11-09T13:16:42.107Z,100423.53
2022-11-09T13:19:03.177Z,100421.59
2022-11-09T13:21:23.460Z,100425.75
2022-11-09T13:24:03.292Z,100422.38
2022-11-09T13:26:25.310Z,100417.63
2022-11-09T13:29:14.893Z,100413.16
2022-11-09T13:32:12.521Z,100410.09
2022-11-09T13:34:42.675Z,100409.94
2022-11-09T13:37:35.538Z,100410.88
2022-11-09T13:39:56.283Z,100419.09
2022-11-09T13:42:25.989Z,100419.84
2022-11-09T13:44:48.245Z,100416.47
2022-11-09T13:47:27.819Z,100409.41
2022-11-09T13:49:50.521Z,100413.25
2022-11-09T13:52:41.372Z,100409.56
2022-11-09T13:55:03.178Z,100407.56
2022-11-09T13:57:25.587Z,100411.84
2022-11-09T13:59:50.028Z,100415.91
2022-11-09T14:02:21.259Z,100410.06
2022-11-09T14:04:44.007Z,100412.47
2022-11-09T14:07:25.356Z,100413.53
2022-11-09T14:10:12.264Z,100415.91
2022-11-09T14:13:08.306Z,100428.00
2022-11-09T14:15:50.091Z,100425.31
2022-11-09T14:18:16.617Z,100420.09
2022-11-09T14:20:58.365Z,100420.53
2022-11-09T14:23:28.256Z,100424.09
2022-11-09T14:25:49.342Z,100426.53
2022-11-09T14:28:26.647Z,100427.37
2022-11-09T14:30:47.601Z,100424.00
2022-11-09T14:33:24.659Z,100427.84
2022-11-09T14:35:45.574Z,100427.75
2022-11-09T14:38:18.529Z,100425.41
2022-11-09T14:40:45.805Z,100424.22
2022-11-09T14:43:29.321Z,100414.94
2022-11-09T14:45:53.033Z,100424.28
2022-11-09T14:48:21.852Z,100421.13
2022-11-09T14:50:43.219Z,100424.69
2022-11-09T14:53:05.804Z,100437.97
2022-11-09T14:55:27.384Z,100428.59
2022-11-09T14:57:49.920Z,100437.59
2022-11-09T15:00:24.425Z,100430.28
2022-11-09T15:02:44.832Z,100439.75
2022-11-09T15:05:06.812Z,100432.81
2022-11-09T15:07:33.899Z,100425.78
2022-11-09T15:10:01.328Z,100424.78
2022-11-09T15:12:22.069Z,100425.69
2022-11-09T15:14:48.169Z,100423.94
2022-11-09T15:17:30.594Z,100433.69
2022-11-09T15:19:59.164Z,100430.31
2022-11-09T15:22:53.660Z,100430.00
2022-11-09T15:25:24.478Z,100429.22
2022-11-09T15:27:59.083Z,100433.97
2022-11-09T15:30:40.825Z,100426.75
2022-11-09T15:33:18.145Z,100436.16
2022-11-09T15:35:56.075Z,100422.56
2022-11-09T15:38:35.412Z,100426.47
2022-11-09T15:40:56.488Z,100438.50
2022-11-09T15:43:18.229Z,100431.59
2022-11-09T15:45:39.304Z,100435.28
2022-11-09T15:48:01.813Z,100438.50
2022-11-09T15:50:31.956Z,100430.91
2022-11-09T15:52:52.857Z,100438.91
2022-11-09T15:55:21.902Z,100437.72
2022-11-09T15:57:43.027Z,100436.53
2022-11-09T16:00:09.213Z,100436.38
2022-11-09T16:02:33.795Z,100437.25
2022-11-09T16:04:54.732Z,100434.88
2022-11-09T16:07:17.025Z,100439.47
2022-11-09T16:09:42.419Z,100439.31
2022-11-09T16:12:03.412Z,100443.25
2022-11-09T16:14:24.530Z,100446.19
2022-11-09T16:16:44.901Z,100455.25
2022-11-09T16:19:05.699Z,100452.88
2022-11-09T16:21:27.199Z,100455.19
2022-11-09T16:23:48.306Z,100449.41
2022-11-09T16:26:15.292Z,100443.56
2022-11-09T16:28:37.274Z,100445.88
2022-11-09T16:30:58.284Z,100452.03
2022-11-09T16:33:18.941Z,100455.78
2022-11-09T16:35:40.029Z,100456.41
2022-11-09T16:38:03.729Z,100459.62
2022-11-09T16:40:25.937Z,100451.97
2022-11-09T16:42:48.463Z,100450.56
2022-11-09T16:45:13.633Z,100449.66
2022-11-09T16:47:38.522Z,100455.78
2022-11-09T16:49:58.996Z,100449.56
2022-11-09T16:52:19.744Z,100452.50
2022-11-09T16:54:40.734Z,100447.34
2022-11-09T16:57:02.059Z,100454.88
2022-11-09T16:59:24.446Z,100448.62
2022-11-09T17:01:51.585Z,100450.28
2022-11-09T17:04:12.771Z,100447.31
2022-11-09T17:06:33.966Z,100449.03
2022-11-09T17:08:58.071Z,100455.00
2022-11-09T17:11:20.074Z,100454.31
2022-11-09T17:13:41.065Z,100458.16
2022-11-09T17:16:03.892Z,100465.00
2022-11-09T17:18:25.025Z,100460.47
2022-11-09T17:20:50.338Z,100458.03
2022-11-09T17:23:13.869Z,100455.19
2022-11-09T17:25:34.829Z,100457.09
2022-11-09T17:27:55.949Z,100461.34
2022-11-09T17:30:16.766Z,100464.56
2022-11-09T17:32:38.175Z,100458.78
2022-11-09T17:34:59.335Z,100456.50
2022-11-09T17:37:20.928Z,100455.03
2022-11-09T17:39:41.798Z,100457.72
2022-11-09T17:42:03.413Z,100454.88
2022-11-09T17:44:24.333Z,100456.50
2022-11-09T17:46:45.003Z,100451.13
2022-11-09T17:49:10.000Z,100445.03
2022-11-09T17:51:32.663Z,100449.44
2022-11-09T17:53:54.847Z,100457.31
2022-11-09T17:56:15.994Z,100453.41
2022-11-09T17:58:44.573Z,100450.56
2022-11-09T18:01:07.830Z,100454.50
2022-11-09T18:03:33.211Z,100450.34
2022-11-09T18:05:54.794Z,100447.88
2022-11-09T18:08:16.858Z,100449.12
2022-11-09T18:10:44.949Z,100446.59
2022-11-09T18:13:06.691Z,100447.44
2022-11-09T18:15:28.391Z,100450.50
2022-11-09T18:17:49.879Z,100443.28
2022-11-09T18:20:11.218Z,100439.81
2022-11-09T18:22:32.320Z,100441.53
2022-11-09T18:24:53.843Z,100444.66
2022-11-09T18:27:15.468Z,100439.63
2022-11-09T18:29:36.370Z,100431.81
2022-11-09T18:31:57.882Z,100442.84
2022-11-09T18:34:18.854Z,100437.13
2022-11-09T18:36:40.024Z,100435.75
2022-11-09T18:39:03.485Z,100436.44
2022-11-09T18:41:34.027Z,100436.69
2022-11-09T18:43:58.403Z,100437.13
2022-11-09T18:46:20.531Z,100433.91
2022-11-09T18:48:41.291Z,100431.13
2022-11-09T18:51:03.182Z,100438.34
2022-11-09T18:53:27.428Z,100438.38
2022-11-09T18:55:49.183Z,100435.53
2022-11-09T18:58:10.422Z,100443.91
2022-11-09T19:00:31.172Z,100440.22
2022-11-09T19:02:52.595Z,100435.28
2022-11-09T19:05:14.050Z,100437.44
2022-11-09T19:07:38.949Z,100434.22
2022-11-09T19:10:00.820Z,100433.75
2022-11-09T19:12:21.988Z,100425.53
2022-11-09T19:14:44.389Z,100427.69
2022-11-09T19:17:06.530Z,100427.53
2022-11-09T19:19:28.003Z,100428.22
2022-11-09T19:21:52.196Z,100433.75
2022-11-09T19:24:16.486Z,100431.97
2022-11-09T19:26:37.411Z,100433.91
2022-11-09T19:28:59.003Z,100432.44
2022-11-09T19:31:24.297Z,100427.50
2022-11-09T19:33:45.465Z,100435.06
2022-11-09T19:36:29.248Z,100441.81
2022-11-09T19:38:50.946Z,100449.88
2022-11-09T19:41:12.262Z,100443.59
2022-11-09T19:43:33.652Z,100446.50
2022-11-09T19:45:55.259Z,100440.59
2022-11-09T19:48:15.970Z,100440.16
2022-11-09T19:50:37.023Z,100440.97
2022-11-09T19:52:58.041Z,100438.00
2022-11-09T19:55:19.361Z,100431.22
2022-11-09T19:57:39.767Z,100442.16
2022-11-09T20:00:01.063Z,100443.75
2022-11-09T20:02:22.561Z,100440.37
2022-11-09T20:04:47.977Z,100438.81
2022-11-09T20:07:09.140Z,100449.66
2022-11-09T20:09:31.018Z,100444.47
2022-11-09T20:12:10.560Z,100451.66
2022-11-09T20:14:31.773Z,100448.44
2022-11-09T20:16:54.718Z,100460.69
2022-11-09T20:19:16.048Z,100471.53
2022-11-09T20:21:38.626Z,100463.94
2022-11-09T20:23:59.502Z,100462.44
2022-11-09T20:26:20.662Z,100463.34
2022-11-09T20:28:42.063Z,100466.12
2022-11-09T20:31:14.858Z,100452.41
2022-11-09T20:33:35.945Z,100453.41
2022-11-09T20:35:57.146Z,100450.13
2022-11-09T20:38:19.096Z,100448.28
2022-11-09T20:40:40.589Z,100436.50
2022-11-09T20:43:01.765Z,100437.19
2022-11-09T20:45:22.815Z,100435.00
2022-11-09T20:48:05.028Z,100440.56
2022-11-09T20:50:25.326Z,100442.16
2022-11-09T20:52:46.468Z,100445.59
2022-11-09T20:55:07.951Z,100444.09
2022-11-09T20:57:30.082Z,100452.84
2022-11-09T20:59:51.769Z,100449.16
2022-11-09T21:02:16.943Z,100454.88
2022-11-09T21:04:38.351Z,100456.94
2022-11-09T21:07:00.053Z,100452.09
2022-11-09T21:09:20.913Z,100457.09
2022-11-09T21:12:00.585Z,100454.72
2022-11-09T21:14:21.178Z,100452.94
2022-11-09T21:16:42.460Z,100451.75
2022-11-09T21:19:03.266Z,100450.59
2022-11-09T21:21:26.071Z,100452.06
2022-11-09T21:24:05.592Z,100461.41
2022-11-09T21:26:45.892Z,100461.19
2022-11-09T21:29:28.755Z,100460.53
2022-11-09T21:31:49.983Z,100461.16
2022-11-09T21:34:10.658Z,100460.28
2022-11-09T21:36:31.315Z,100462.53
2022-11-09T21:38:52.042Z,100458.66
2022-11-09T21:41:31.870Z,100459.12
2022-11-09T21:43:56.515Z,100453.28
2022-11-09T21:46:17.082Z,100447.78
2022-11-09T21:48:37.878Z,100456.84
2022-11-09T21:50:58.601Z,100456.72
2022-11-09T21:53:19.403Z,100461.47
2022-11-09T21:55:40.495Z,100457.37
2022-11-09T21:58:01.381Z,100465.44
2022-11-09T22:00:22.144Z,100466.75
2022-11-09T22:02:42.943Z,100463.16
2022-11-09T22:05:03.940Z,100454.25
2022-11-09T22:07:24.638Z,100445.66
2022-11-09T22:10:09.259Z,100443.72
2022-11-09T22:12:50.852Z,100441.44
2022-11-09T22:15:30.297Z,100433.34
2022-11-09T22:17:53.989Z,100428.38
2022-11-09T22:20:33.242Z,100426.31
2022-11-09T22:22:54.100Z,100429.84
2022-11-09T22:25:14.792Z,100422.44
2022-11-09T22:27:35.675Z,100432.03
2022-11-09T22:29:56.485Z,100435.34
2022-11-09T22:32:17.270Z,100437.34
2022-11-09T22:34:38.070Z,100443.87
2022-11-09T22:36:58.985Z,100439.06
2022-11-09T22:39:19.951Z,100439.66
2022-11-09T22:41:40.783Z,100438.03
2022-11-09T22:44:01.380Z,100434.44
2022-11-09T22:46:22.399Z,100435.06
2022-11-09T22:48:44.504Z,100430.22
2022-11-09T22:51:05.877Z,100427.53
2022-11-09T22:53:27.138Z,100425.53
2022-11-09T22:55:55.027Z,100424.75
2022-11-09T22:58:15.684Z,100428.22
2022-11-09T23:00:36.411Z,100431.88
2022-11-09T23:02:57.615Z,100433.13
2022-11-09T23:05:18.335Z,100436.81
2022-11-09T23:07:39.144Z,100440.09
2022-11-09T23:10:00.263Z,100436.03
2022-11-09T23:12:20.969Z,100438.28
2022-11-09T23:15:00.317Z,100436.81
2022-11-09T23:17:39.867Z,100438.72
